sensor_id;sensor_type;location;lat;lon;timestamp;temperature;humidity
6810;DHT22;3443;48.812;9.112;2023-04-03T00:00:47;3.70;99.90
6810;DHT22;3443;48.812;9.112;2023-04-03T00:03:14;3.80;99.90
6810;DHT22;3443;48.812;9.112;2023-04-03T00:05:40;3.70;99.90
6810;DHT22;3443;48.812;9.112;2023-04-03T00:08:07;3.60;99.90
6810;DHT22;3443;48.812;9.112;2023-04-03T00:10:35;3.60;99.90
6810;DHT22;3443;48.812;9.112;2023-04-03T00:13:01;3.70;99.90
6810;DHT22;3443;48.812;9.112;2023-04-03T00:15:27;3.70;99.90
6810;DHT22;3443;48.812;9.112;2023-04-03T00:17:52;3.70;99.90
6810;DHT22;3443;48.812;9.112;2023-04-03T00:20:18;3.70;99.90
6810;DHT22;3443;48.812;9.112;2023-04-03T00:22:43;3.70;99.90
6810;DHT22;3443;48.812;9.112;2023-04-03T00:25:09;3.70;99.90
6810;DHT22;3443;48.812;9.112;2023-04-03T00:27:37;3.70;99.90
6810;DHT22;3443;48.812;9.112;2023-04-03T00:30:04;3.80;99.90
6810;DHT22;3443;48.812;9.112;2023-04-03T00:32:29;3.70;99.90
6810;DHT22;3443;48.812;9.112;2023-04-03T00:34:55;3.60;99.90
6810;DHT22;3443;48.812;9.112;2023-04-03T00:37:20;3.50;99.90
6810;DHT22;3443;48.812;9.112;2023-04-03T00:39:46;3.50;99.90
6810;DHT22;3443;48.812;9.112;2023-04-03T00:42:12;3.50;99.90
6810;DHT22;3443;48.812;9.112;2023-04-03T00:47:05;3.50;99.90
6810;DHT22;3443;48.812;9.112;2023-04-03T00:49:32;3.40;99.90
6810;DHT22;3443;48.812;9.112;2023-04-03T00:51:58;3.40;99.90
6810;DHT22;3443;48.812;9.112;2023-04-03T00:54:25;3.30;99.90
6810;DHT22;3443;48.812;9.112;2023-04-03T00:56:53;3.30;99.90
6810;DHT22;3443;48.812;9.112;2023-04-03T00:59:25;3.30;99.90
6810;DHT22;3443;48.812;9.112;2023-04-03T01:01:54;3.30;99.90
6810;DHT22;3443;48.812;9.112;2023-04-03T01:04:34;3.30;99.90
6810;DHT22;3443;48.812;9.112;2023-04-03T01:07:04;3.20;99.90
6810;DHT22;3443;48.812;9.112;2023-04-03T01:09:31;3.30;99.90
6810;DHT22;3443;48.812;9.112;2023-04-03T01:12:18;3.40;99.90
6810;DHT22;3443;48.812;9.112;2023-04-03T01:14:45;3.50;99.90
6810;DHT22;3443;48.812;9.112;2023-04-03T01:17:44;3.50;99.90
6810;DHT22;3443;48.812;9.112;2023-04-03T01:25:57;3.20;99.90
6810;DHT22;3443;48.812;9.112;2023-04-03T01:28:28;3.30;99.90
6810;DHT22;3443;48.812;9.112;2023-04-03T01:33:50;3.30;99.90
6810;DHT22;3443;48.812;9.112;2023-04-03T01:36:26;3.30;99.90
6810;DHT22;3443;48.812;9.112;2023-04-03T01:38:53;3.20;99.90
6810;DHT22;3443;48.812;9.112;2023-04-03T01:41:20;3.20;99.90
6810;DHT22;3443;48.812;9.112;2023-04-03T01:43:47;3.20;99.90
6810;DHT22;3443;48.812;9.112;2023-04-03T01:46:20;3.30;99.90
6810;DHT22;3443;48.812;9.112;2023-04-03T01:48:46;3.20;99.90
6810;DHT22;3443;48.812;9.112;2023-04-03T01:51:12;3.20;99.90
6810;DHT22;3443;48.812;9.112;2023-04-03T01:53:37;3.20;99.90
6810;DHT22;3443;48.812;9.112;2023-04-03T01:56:03;3.20;99.90
6810;DHT22;3443;48.812;9.112;2023-04-03T01:58:28;3.20;99.90
6810;DHT22;3443;48.812;9.112;2023-04-03T02:00:54;3.30;99.90
6810;DHT22;3443;48.812;9.112;2023-04-03T02:03:20;3.30;99.90
6810;DHT22;3443;48.812;9.112;2023-04-03T02:05:46;3.30;99.90
6810;DHT22;3443;48.812;9.112;2023-04-03T02:08:11;3.20;99.90
6810;DHT22;3443;48.812;9.112;2023-04-03T02:10:37;3.20;99.90
6810;DHT22;3443;48.812;9.112;2023-04-03T02:13:03;3.20;99.90
6810;DHT22;3443;48.812;9.112;2023-04-03T02:15:28;3.10;99.90
6810;DHT22;3443;48.812;9.112;2023-04-03T02:17:54;3.10;99.90
6810;DHT22;3443;48.812;9.112;2023-04-03T02:20:20;3.10;99.90
6810;DHT22;3443;48.812;9.112;2023-04-03T02:22:45;3.20;99.90
6810;DHT22;3443;48.812;9.112;2023-04-03T02:25:11;3.20;99.90
6810;DHT22;3443;48.812;9.112;2023-04-03T02:27:38;3.30;99.90
6810;DHT22;3443;48.812;9.112;2023-04-03T02:30:04;3.30;99.90
6810;DHT22;3443;48.812;9.112;2023-04-03T02:32:31;3.30;99.90
6810;DHT22;3443;48.812;9.112;2023-04-03T02:34:56;3.30;99.90
6810;DHT22;3443;48.812;9.112;2023-04-03T02:37:22;3.30;99.90
6810;DHT22;3443;48.812;9.112;2023-04-03T02:39:47;3.30;99.90
6810;DHT22;3443;48.812;9.112;2023-04-03T02:42:13;3.30;99.90
6810;DHT22;3443;48.812;9.112;2023-04-03T02:44:39;3.20;99.90
6810;DHT22;3443;48.812;9.112;2023-04-03T02:47:05;3.20;99.90
6810;DHT22;3443;48.812;9.112;2023-04-03T02:49:31;3.20;99.90
6810;DHT22;3443;48.812;9.112;2023-04-03T02:51:56;3.20;99.90
6810;DHT22;3443;48.812;9.112;2023-04-03T02:54:22;3.20;99.90
6810;DHT22;3443;48.812;9.112;2023-04-03T02:56:49;3.20;99.90
6810;DHT22;3443;48.812;9.112;2023-04-03T02:59:15;3.20;99.90
6810;DHT22;3443;48.812;9.112;2023-04-03T03:01:41;3.20;99.90
6810;DHT22;3443;48.812;9.112;2023-04-03T03:04:07;3.20;99.90
6810;DHT22;3443;48.812;9.112;2023-04-03T03:06:32;3.30;99.90
6810;DHT22;3443;48.812;9.112;2023-04-03T03:08:58;3.30;99.90
6810;DHT22;3443;48.812;9.112;2023-04-03T03:11:23;3.40;99.90
6810;DHT22;3443;48.812;9.112;2023-04-03T03:13:50;3.50;99.90
6810;DHT22;3443;48.812;9.112;2023-04-03T03:16:16;3.50;99.90
6810;DHT22;3443;48.812;9.112;2023-04-03T03:18:41;3.40;99.90
6810;DHT22;3443;48.812;9.112;2023-04-03T03:21:08;3.60;99.90
6810;DHT22;3443;48.812;9.112;2023-04-03T03:23:34;3.60;99.90
6810;DHT22;3443;48.812;9.112;2023-04-03T03:26:03;3.60;99.90
6810;DHT22;3443;48.812;9.112;2023-04-03T03:28:29;3.60;99.90
6810;DHT22;3443;48.812;9.112;2023-04-03T03:30:56;3.50;99.90
6810;DHT22;3443;48.812;9.112;2023-04-03T03:33:22;3.50;99.90
6810;DHT22;3443;48.812;9.112;2023-04-03T03:35:47;3.50;99.90
6810;DHT22;3443;48.812;9.112;2023-04-03T03:38:13;3.50;99.90
6810;DHT22;3443;48.812;9.112;2023-04-03T03:40:38;3.50;99.90
6810;DHT22;3443;48.812;9.112;2023-04-03T03:43:04;3.50;99.90
6810;DHT22;3443;48.812;9.112;2023-04-03T03:45:30;3.50;99.90
6810;DHT22;3443;48.812;9.112;2023-04-03T03:47:56;3.50;99.90
6810;DHT22;3443;48.812;9.112;2023-04-03T03:50:22;3.50;99.90
6810;DHT22;3443;48.812;9.112;2023-04-03T03:52:47;3.60;99.90
6810;DHT22;3443;48.812;9.112;2023-04-03T03:55:13;3.60;99.90
6810;DHT22;3443;48.812;9.112;2023-04-03T03:57:38;3.50;99.90
6810;DHT22;3443;48.812;9.112;2023-04-03T04:00:04;3.50;99.90
6810;DHT22;3443;48.812;9.112;2023-04-03T04:02:30;3.50;99.90
6810;DHT22;3443;48.812;9.112;2023-04-03T04:04:56;3.50;99.90
6810;DHT22;3443;48.812;9.112;2023-04-03T04:07:22;3.50;99.90
6810;DHT22;3443;48.812;9.112;2023-04-03T04:09:48;3.50;99.90
6810;DHT22;3443;48.812;9.112;2023-04-03T04:12:14;3.40;99.90
6810;DHT22;3443;48.812;9.112;2023-04-03T04:14:39;3.40;99.90
6810;DHT22;3443;48.812;9.112;2023-04-03T04:17:05;3.40;99.90
6810;DHT22;3443;48.812;9.112;2023-04-03T04:19:31;3.40;99.90
6810;DHT22;3443;48.812;9.112;2023-04-03T04:21:56;3.40;99.90
6810;DHT22;3443;48.812;9.112;2023-04-03T04:24:22;3.40;99.90
6810;DHT22;3443;48.812;9.112;2023-04-03T04:26:50;3.40;99.90
6810;DHT22;3443;48.812;9.112;2023-04-03T04:29:16;3.50;99.90
6810;DHT22;3443;48.812;9.112;2023-04-03T04:31:41;3.50;99.90
6810;DHT22;3443;48.812;9.112;2023-04-03T04:34:07;3.50;99.90
6810;DHT22;3443;48.812;9.112;2023-04-03T04:36:32;3.50;99.90
6810;DHT22;3443;48.812;9.112;2023-04-03T04:38:58;3.50;99.90
6810;DHT22;3443;48.812;9.112;2023-04-03T04:41:24;3.50;99.90
6810;DHT22;3443;48.812;9.112;2023-04-03T04:43:51;3.50;99.90
6810;DHT22;3443;48.812;9.112;2023-04-03T04:46:16;3.40;99.90
6810;DHT22;3443;48.812;9.112;2023-04-03T04:48:42;3.40;99.90
6810;DHT22;3443;48.812;9.112;2023-04-03T04:51:08;3.40;99.90
6810;DHT22;3443;48.812;9.112;2023-04-03T04:53:34;3.40;99.90
6810;DHT22;3443;48.812;9.112;2023-04-03T04:56:00;3.40;99.90
6810;DHT22;3443;48.812;9.112;2023-04-03T04:58:25;3.30;99.90
6810;DHT22;3443;48.812;9.112;2023-04-03T05:00:59;3.40;99.90
6810;DHT22;3443;48.812;9.112;2023-04-03T05:03:25;3.40;99.90
6810;DHT22;3443;48.812;9.112;2023-04-03T05:05:50;3.40;99.90
6810;DHT22;3443;48.812;9.112;2023-04-03T05:08:16;3.50;99.90
6810;DHT22;3443;48.812;9.112;2023-04-03T05:10:41;3.50;99.90
6810;DHT22;3443;48.812;9.112;2023-04-03T05:13:07;3.40;99.90
6810;DHT22;3443;48.812;9.112;2023-04-03T05:15:33;3.40;99.90
6810;DHT22;3443;48.812;9.112;2023-04-03T05:17:59;3.40;99.90
6810;DHT22;3443;48.812;9.112;2023-04-03T05:20:24;3.40;99.90
6810;DHT22;3443;48.812;9.112;2023-04-03T05:22:50;3.50;99.90
6810;DHT22;3443;48.812;9.112;2023-04-03T05:25:16;3.50;99.90
6810;DHT22;3443;48.812;9.112;2023-04-03T05:27:41;3.50;99.90
6810;DHT22;3443;48.812;9.112;2023-04-03T05:30:08;3.40;99.90
6810;DHT22;3443;48.812;9.112;2023-04-03T05:32:33;3.40;99.90
6810;DHT22;3443;48.812;9.112;2023-04-03T05:34:59;3.30;99.90
6810;DHT22;3443;48.812;9.112;2023-04-03T05:37:24;3.30;99.90
6810;DHT22;3443;48.812;9.112;2023-04-03T05:39:50;3.30;99.90
6810;DHT22;3443;48.812;9.112;2023-04-03T05:42:16;3.30;99.90
6810;DHT22;3443;48.812;9.112;2023-04-03T05:44:42;3.30;99.90
6810;DHT22;3443;48.812;9.112;2023-04-03T05:47:08;3.40;99.90
6810;DHT22;3443;48.812;9.112;2023-04-03T05:49:34;3.40;99.90
6810;DHT22;3443;48.812;9.112;2023-04-03T05:52:00;3.50;99.90
6810;DHT22;3443;48.812;9.112;2023-04-03T05:54:30;3.50;99.90
6810;DHT22;3443;48.812;9.112;2023-04-03T05:56:55;3.50;99.90
6810;DHT22;3443;48.812;9.112;2023-04-03T05:59:21;3.50;99.90
6810;DHT22;3443;48.812;9.112;2023-04-03T06:01:47;3.50;99.90
6810;DHT22;3443;48.812;9.112;2023-04-03T06:04:14;3.60;99.90
6810;DHT22;3443;48.812;9.112;2023-04-03T06:09:17;3.40;99.90
6810;DHT22;3443;48.812;9.112;2023-04-03T06:11:44;3.40;99.90
6810;DHT22;3443;48.812;9.112;2023-04-03T06:14:10;3.50;99.90
6810;DHT22;3443;48.812;9.112;2023-04-03T06:16:37;3.40;99.90
6810;DHT22;3443;48.812;9.112;2023-04-03T06:19:03;3.40;99.90
6810;DHT22;3443;48.812;9.112;2023-04-03T06:21:29;3.40;99.90
6810;DHT22;3443;48.812;9.112;2023-04-03T06:23:55;3.30;99.90
6810;DHT22;3443;48.812;9.112;2023-04-03T06:26:21;3.30;99.90
6810;DHT22;3443;48.812;9.112;2023-04-03T06:28:47;3.30;99.90
6810;DHT22;3443;48.812;9.112;2023-04-03T06:31:13;3.30;99.90
6810;DHT22;3443;48.812;9.112;2023-04-03T06:33:38;3.30;99.90
6810;DHT22;3443;48.812;9.112;2023-04-03T06:36:05;3.30;99.90
6810;DHT22;3443;48.812;9.112;2023-04-03T06:38:32;3.30;99.90
6810;DHT22;3443;48.812;9.112;2023-04-03T06:40:58;3.30;99.90
6810;DHT22;3443;48.812;9.112;2023-04-03T06:43:24;3.40;99.90
6810;DHT22;3443;48.812;9.112;2023-04-03T06:45:50;3.40;99.90
6810;DHT22;3443;48.812;9.112;2023-04-03T06:48:16;3.40;99.90
6810;DHT22;3443;48.812;9.112;2023-04-03T06:50:42;3.50;99.90
6810;DHT22;3443;48.812;9.112;2023-04-03T06:53:08;3.70;99.90
6810;DHT22;3443;48.812;9.112;2023-04-03T06:55:33;3.80;99.90
6810;DHT22;3443;48.812;9.112;2023-04-03T06:58:00;3.70;99.90
6810;DHT22;3443;48.812;9.112;2023-04-03T07:00:26;3.60;99.90
6810;DHT22;3443;48.812;9.112;2023-04-03T07:02:53;3.50;99.90
6810;DHT22;3443;48.812;9.112;2023-04-03T07:05:18;3.50;99.90
6810;DHT22;3443;48.812;9.112;2023-04-03T07:07:44;3.50;99.90
6810;DHT22;3443;48.812;9.112;2023-04-03T07:10:10;3.50;99.90
6810;DHT22;3443;48.812;9.112;2023-04-03T07:12:36;3.70;99.90
6810;DHT22;3443;48.812;9.112;2023-04-03T07:15:04;3.80;99.90
6810;DHT22;3443;48.812;9.112;2023-04-03T07:17:30;3.80;99.90
6810;DHT22;3443;48.812;9.112;2023-04-03T07:19:56;3.80;99.90
6810;DHT22;3443;48.812;9.112;2023-04-03T07:22:22;4.00;99.90
6810;DHT22;3443;48.812;9.112;2023-04-03T07:24:47;4.00;99.90
6810;DHT22;3443;48.812;9.112;2023-04-03T07:27:13;4.10;99.90
6810;DHT22;3443;48.812;9.112;2023-04-03T07:29:39;4.20;99.90
6810;DHT22;3443;48.812;9.112;2023-04-03T07:32:05;4.30;99.90
6810;DHT22;3443;48.812;9.112;2023-04-03T07:34:32;4.30;99.90
6810;DHT22;3443;48.812;9.112;2023-04-03T07:36:58;4.40;99.90
6810;DHT22;3443;48.812;9.112;2023-04-03T07:39:24;4.40;99.90
6810;DHT22;3443;48.812;9.112;2023-04-03T07:41:50;4.20;99.90
6810;DHT22;3443;48.812;9.112;2023-04-03T07:44:15;4.10;99.90
6810;DHT22;3443;48.812;9.112;2023-04-03T07:46:41;3.90;99.90
6810;DHT22;3443;48.812;9.112;2023-04-03T07:49:07;3.90;99.90
6810;DHT22;3443;48.812;9.112;2023-04-03T07:51:33;3.90;99.90
6810;DHT22;3443;48.812;9.112;2023-04-03T07:53:59;3.90;99.90
6810;DHT22;3443;48.812;9.112;2023-04-03T07:56:24;3.90;99.90
6810;DHT22;3443;48.812;9.112;2023-04-03T07:58:50;3.90;99.90
6810;DHT22;3443;48.812;9.112;2023-04-03T08:01:16;4.20;99.90
6810;DHT22;3443;48.812;9.112;2023-04-03T08:03:42;4.30;99.90
6810;DHT22;3443;48.812;9.112;2023-04-03T08:06:08;4.30;99.90
6810;DHT22;3443;48.812;9.112;2023-04-03T08:08:34;4.40;99.90
6810;DHT22;3443;48.812;9.112;2023-04-03T08:11:01;4.50;99.90
6810;DHT22;3443;48.812;9.112;2023-04-03T08:13:29;4.40;99.90
6810;DHT22;3443;48.812;9.112;2023-04-03T08:15:55;4.40;99.90
6810;DHT22;3443;48.812;9.112;2023-04-03T08:18:23;4.50;99.90
6810;DHT22;3443;48.812;9.112;2023-04-03T08:20:50;4.60;99.90
6810;DHT22;3443;48.812;9.112;2023-04-03T08:23:17;4.80;99.90
6810;DHT22;3443;48.812;9.112;2023-04-03T08:25:43;4.80;99.90
6810;DHT22;3443;48.812;9.112;2023-04-03T08:28:10;4.50;99.90
6810;DHT22;3443;48.812;9.112;2023-04-03T08:30:39;4.50;99.90
6810;DHT22;3443;48.812;9.112;2023-04-03T08:33:05;4.60;99.90
6810;DHT22;3443;48.812;9.112;2023-04-03T08:35:31;4.70;99.90
6810;DHT22;3443;48.812;9.112;2023-04-03T08:37:56;4.80;99.90
6810;DHT22;3443;48.812;9.112;2023-04-03T08:40:23;4.90;99.90
6810;DHT22;3443;48.812;9.112;2023-04-03T08:47:57;4.80;99.90
6810;DHT22;3443;48.812;9.112;2023-04-03T08:50:33;5.00;99.90
6810;DHT22;3443;48.812;9.112;2023-04-03T08:53:02;5.10;99.90
6810;DHT22;3443;48.812;9.112;2023-04-03T08:55:37;4.90;99.90
6810;DHT22;3443;48.812;9.112;2023-04-03T08:58:12;5.00;99.90
6810;DHT22;3443;48.812;9.112;2023-04-03T09:00:49;5.10;99.90
6810;DHT22;3443;48.812;9.112;2023-04-03T09:03:18;5.00;99.90
6810;DHT22;3443;48.812;9.112;2023-04-03T09:05:57;5.10;99.90
6810;DHT22;3443;48.812;9.112;2023-04-03T09:08:45;5.20;99.90
6810;DHT22;3443;48.812;9.112;2023-04-03T09:14:33;5.50;99.90
6810;DHT22;3443;48.812;9.112;2023-04-03T09:20:16;5.60;99.90
6810;DHT22;3443;48.812;9.112;2023-04-03T09:22:45;5.60;99.90
6810;DHT22;3443;48.812;9.112;2023-04-03T09:25:33;5.50;99.90
6810;DHT22;3443;48.812;9.112;2023-04-03T09:28:01;5.50;99.90
6810;DHT22;3443;48.812;9.112;2023-04-03T09:30:35;5.50;99.90
6810;DHT22;3443;48.812;9.112;2023-04-03T09:33:01;5.40;99.90
6810;DHT22;3443;48.812;9.112;2023-04-03T09:35:31;5.50;99.90
6810;DHT22;3443;48.812;9.112;2023-04-03T09:40:37;5.50;99.90
6810;DHT22;3443;48.812;9.112;2023-04-03T09:43:28;5.50;99.90
6810;DHT22;3443;48.812;9.112;2023-04-03T09:45:54;5.60;99.90
6810;DHT22;3443;48.812;9.112;2023-04-03T09:48:23;5.50;99.90
6810;DHT22;3443;48.812;9.112;2023-04-03T09:55:55;5.70;99.90
6810;DHT22;3443;48.812;9.112;2023-04-03T09:58:28;5.70;99.90
6810;DHT22;3443;48.812;9.112;2023-04-03T10:00:59;5.70;99.90
6810;DHT22;3443;48.812;9.112;2023-04-03T10:03:31;5.50;99.90
6810;DHT22;3443;48.812;9.112;2023-04-03T10:05:58;5.60;99.90
6810;DHT22;3443;48.812;9.112;2023-04-03T10:11:16;5.50;99.90
6810;DHT22;3443;48.812;9.112;2023-04-03T10:13:53;5.60;99.90
6810;DHT22;3443;48.812;9.112;2023-04-03T10:16:24;5.40;99.90
6810;DHT22;3443;48.812;9.112;2023-04-03T10:21:52;5.70;99.90
6810;DHT22;3443;48.812;9.112;2023-04-03T10:24:28;5.90;99.90
6810;DHT22;3443;48.812;9.112;2023-04-03T10:27:31;5.90;99.90
6810;DHT22;3443;48.812;9.112;2023-04-03T10:30:00;5.80;99.90
6810;DHT22;3443;48.812;9.112;2023-04-03T10:33:31;5.60;99.90
6810;DHT22;3443;48.812;9.112;2023-04-03T10:38:35;5.90;99.90
6810;DHT22;3443;48.812;9.112;2023-04-03T10:41:20;5.90;99.90
6810;DHT22;3443;48.812;9.112;2023-04-03T10:46:40;5.60;99.90
6810;DHT22;3443;48.812;9.112;2023-04-03T10:54:38;5.50;99.90
6810;DHT22;3443;48.812;9.112;2023-04-03T10:57:07;5.50;99.90
6810;DHT22;3443;48.812;9.112;2023-04-03T10:59:46;5.50;99.90
6810;DHT22;3443;48.812;9.112;2023-04-03T11:02:28;5.40;99.90
6810;DHT22;3443;48.812;9.112;2023-04-03T11:04:59;5.50;99.90
6810;DHT22;3443;48.812;9.112;2023-04-03T11:07:29;5.50;99.90
6810;DHT22;3443;48.812;9.112;2023-04-03T11:10:09;5.50;99.90
6810;DHT22;3443;48.812;9.112;2023-04-03T11:12:46;5.60;99.90
6810;DHT22;3443;48.812;9.112;2023-04-03T11:15:17;5.70;99.90
6810;DHT22;3443;48.812;9.112;2023-04-03T11:17:54;5.70;99.90
6810;DHT22;3443;48.812;9.112;2023-04-03T11:20:29;5.90;99.90
6810;DHT22;3443;48.812;9.112;2023-04-03T11:23:08;6.00;99.90
6810;DHT22;3443;48.812;9.112;2023-04-03T11:25:39;6.10;99.90
6810;DHT22;3443;48.812;9.112;2023-04-03T11:28:13;5.90;99.90
6810;DHT22;3443;48.812;9.112;2023-04-03T11:36:30;5.70;99.90
6810;DHT22;3443;48.812;9.112;2023-04-03T11:39:02;5.80;99.90
6810;DHT22;3443;48.812;9.112;2023-04-03T11:41:31;5.80;99.90
6810;DHT22;3443;48.812;9.112;2023-04-03T11:44:04;5.80;99.90
6810;DHT22;3443;48.812;9.112;2023-04-03T11:46:57;5.80;99.90
6810;DHT22;3443;48.812;9.112;2023-04-03T12:16:08;6.30;99.90
6810;DHT22;3443;48.812;9.112;2023-04-03T12:18:58;6.20;99.90
6810;DHT22;3443;48.812;9.112;2023-04-03T12:26:46;6.50;99.90
6810;DHT22;3443;48.812;9.112;2023-04-03T12:40:38;6.40;99.90
6810;DHT22;3443;48.812;9.112;2023-04-03T12:48:54;7.00;99.90
6810;DHT22;3443;48.812;9.112;2023-04-03T12:51:43;7.00;99.90
6810;DHT22;3443;48.812;9.112;2023-04-03T12:56:46;6.70;99.90
6810;DHT22;3443;48.812;9.112;2023-04-03T12:59:25;6.60;99.90
6810;DHT22;3443;48.812;9.112;2023-04-03T13:01:59;6.80;99.90
6810;DHT22;3443;48.812;9.112;2023-04-03T13:04:26;6.90;99.90
6810;DHT22;3443;48.812;9.112;2023-04-03T13:06:52;6.90;99.90
6810;DHT22;3443;48.812;9.112;2023-04-03T13:09:30;6.50;99.90
6810;DHT22;3443;48.812;9.112;2023-04-03T13:12:13;6.40;99.90
6810;DHT22;3443;48.812;9.112;2023-04-03T13:14:39;6.40;99.90
6810;DHT22;3443;48.812;9.112;2023-04-03T13:17:10;6.30;99.90
6810;DHT22;3443;48.812;9.112;2023-04-03T13:19:37;6.30;99.90
6810;DHT22;3443;48.812;9.112;2023-04-03T13:22:23;6.50;99.90
6810;DHT22;3443;48.812;9.112;2023-04-03T13:24:52;6.70;99.90
6810;DHT22;3443;48.812;9.112;2023-04-03T13:27:20;6.90;99.90
6810;DHT22;3443;48.812;9.112;2023-04-03T13:29:50;6.90;99.90
6810;DHT22;3443;48.812;9.112;2023-04-03T13:32:20;7.00;99.90
6810;DHT22;3443;48.812;9.112;2023-04-03T13:34:46;6.80;99.90
6810;DHT22;3443;48.812;9.112;2023-04-03T13:37:29;6.80;99.90
6810;DHT22;3443;48.812;9.112;2023-04-03T13:42:36;6.80;99.90
6810;DHT22;3443;48.812;9.112;2023-04-03T13:45:22;6.70;99.90
6810;DHT22;3443;48.812;9.112;2023-04-03T13:47:50;6.80;99.90
6810;DHT22;3443;48.812;9.112;2023-04-03T13:50:21;7.00;99.90
6810;DHT22;3443;48.812;9.112;2023-04-03T13:52:53;7.10;99.90
6810;DHT22;3443;48.812;9.112;2023-04-03T13:55:34;7.20;99.90
6810;DHT22;3443;48.812;9.112;2023-04-03T13:58:02;7.30;99.90
6810;DHT22;3443;48.812;9.112;2023-04-03T14:00:54;7.00;99.90
6810;DHT22;3443;48.812;9.112;2023-04-03T14:03:42;7.20;99.90
6810;DHT22;3443;48.812;9.112;2023-04-03T14:06:11;7.30;99.90
6810;DHT22;3443;48.812;9.112;2023-04-03T14:08:37;7.40;99.90
6810;DHT22;3443;48.812;9.112;2023-04-03T14:11:02;7.30;99.90
6810;DHT22;3443;48.812;9.112;2023-04-03T14:13:31;7.10;99.90
6810;DHT22;3443;48.812;9.112;2023-04-03T14:15:57;7.00;99.90
6810;DHT22;3443;48.812;9.112;2023-04-03T14:18:23;7.00;99.90
6810;DHT22;3443;48.812;9.112;2023-04-03T14:20:49;7.10;99.90
6810;DHT22;3443;48.812;9.112;2023-04-03T14:23:15;7.10;99.90
6810;DHT22;3443;48.812;9.112;2023-04-03T14:25:41;7.10;99.90
6810;DHT22;3443;48.812;9.112;2023-04-03T14:28:17;7.30;99.90
6810;DHT22;3443;48.812;9.112;2023-04-03T14:30:45;6.80;99.90
6810;DHT22;3443;48.812;9.112;2023-04-03T14:33:14;6.60;99.90
6810;DHT22;3443;48.812;9.112;2023-04-03T14:35:40;6.60;99.90
6810;DHT22;3443;48.812;9.112;2023-04-03T14:38:21;6.70;99.90
6810;DHT22;3443;48.812;9.112;2023-04-03T14:40:47;6.90;99.90
6810;DHT22;3443;48.812;9.112;2023-04-03T14:43:13;6.70;99.90
6810;DHT22;3443;48.812;9.112;2023-04-03T14:45:39;6.70;99.90
6810;DHT22;3443;48.812;9.112;2023-04-03T14:48:04;6.70;99.90
6810;DHT22;3443;48.812;9.112;2023-04-03T14:50:34;6.60;99.90
6810;DHT22;3443;48.812;9.112;2023-04-03T14:53:00;6.60;99.90
6810;DHT22;3443;48.812;9.112;2023-04-03T14:55:26;6.80;99.90
6810;DHT22;3443;48.812;9.112;2023-04-03T14:57:53;7.00;99.90
6810;DHT22;3443;48.812;9.112;2023-04-03T15:00:21;7.40;99.90
6810;DHT22;3443;48.812;9.112;2023-04-03T15:02:47;7.50;99.90
6810;DHT22;3443;48.812;9.112;2023-04-03T15:05:14;7.50;99.90
6810;DHT22;3443;48.812;9.112;2023-04-03T15:07:42;7.10;99.90
6810;DHT22;3443;48.812;9.112;2023-04-03T15:12:40;6.80;99.90
6810;DHT22;3443;48.812;9.112;2023-04-03T15:15:06;6.80;99.90
6810;DHT22;3443;48.812;9.112;2023-04-03T15:17:31;6.80;99.90
6810;DHT22;3443;48.812;9.112;2023-04-03T15:19:58;6.70;99.90
6810;DHT22;3443;48.812;9.112;2023-04-03T15:22:24;6.70;99.90
6810;DHT22;3443;48.812;9.112;2023-04-03T15:24:49;6.60;99.90
6810;DHT22;3443;48.812;9.112;2023-04-03T15:27:15;6.60;99.90
6810;DHT22;3443;48.812;9.112;2023-04-03T15:29:42;6.80;99.90
6810;DHT22;3443;48.812;9.112;2023-04-03T15:32:08;6.80;99.90
6810;DHT22;3443;48.812;9.112;2023-04-03T15:34:34;6.80;99.90
6810;DHT22;3443;48.812;9.112;2023-04-03T15:37:00;6.90;99.90
6810;DHT22;3443;48.812;9.112;2023-04-03T15:39:26;6.90;99.90
6810;DHT22;3443;48.812;9.112;2023-04-03T15:41:52;7.00;99.90
6810;DHT22;3443;48.812;9.112;2023-04-03T15:44:19;6.80;99.90
6810;DHT22;3443;48.812;9.112;2023-04-03T15:46:46;6.60;99.90
6810;DHT22;3443;48.812;9.112;2023-04-03T15:49:12;6.60;99.90
6810;DHT22;3443;48.812;9.112;2023-04-03T15:51:38;6.40;99.90
6810;DHT22;3443;48.812;9.112;2023-04-03T15:54:04;6.30;99.90
6810;DHT22;3443;48.812;9.112;2023-04-03T15:56:30;6.20;99.90
6810;DHT22;3443;48.812;9.112;2023-04-03T15:58:55;6.10;99.90
6810;DHT22;3443;48.812;9.112;2023-04-03T16:01:21;6.20;99.90
6810;DHT22;3443;48.812;9.112;2023-04-03T16:03:47;6.20;99.80
6810;DHT22;3443;48.812;9.112;2023-04-03T16:06:18;6.40;99.90
6810;DHT22;3443;48.812;9.112;2023-04-03T16:08:45;6.70;99.40
6810;DHT22;3443;48.812;9.112;2023-04-03T16:11:11;6.80;99.20
6810;DHT22;3443;48.812;9.112;2023-04-03T16:13:37;6.90;98.30
6810;DHT22;3443;48.812;9.112;2023-04-03T16:16:03;6.80;99.30
6810;DHT22;3443;48.812;9.112;2023-04-03T16:18:29;6.90;99.90
6810;DHT22;3443;48.812;9.112;2023-04-03T16:20:55;7.10;99.90
6810;DHT22;3443;48.812;9.112;2023-04-03T16:23:21;7.10;99.70
6810;DHT22;3443;48.812;9.112;2023-04-03T16:25:47;7.10;99.90
6810;DHT22;3443;48.812;9.112;2023-04-03T16:28:14;7.00;99.90
6810;DHT22;3443;48.812;9.112;2023-04-03T16:30:41;7.00;99.90
6810;DHT22;3443;48.812;9.112;2023-04-03T16:33:06;6.80;99.90
6810;DHT22;3443;48.812;9.112;2023-04-03T16:35:32;6.60;99.90
6810;DHT22;3443;48.812;9.112;2023-04-03T16:37:57;6.50;99.90
6810;DHT22;3443;48.812;9.112;2023-04-03T16:40:23;6.30;99.90
6810;DHT22;3443;48.812;9.112;2023-04-03T16:42:48;6.20;99.90
6810;DHT22;3443;48.812;9.112;2023-04-03T16:45:14;6.10;99.90
6810;DHT22;3443;48.812;9.112;2023-04-03T16:47:40;6.00;99.90
6810;DHT22;3443;48.812;9.112;2023-04-03T16:50:06;5.90;99.90
6810;DHT22;3443;48.812;9.112;2023-04-03T16:52:32;5.80;99.90
6810;DHT22;3443;48.812;9.112;2023-04-03T16:54:57;5.90;99.90
6810;DHT22;3443;48.812;9.112;2023-04-03T16:57:24;5.80;99.90
6810;DHT22;3443;48.812;9.112;2023-04-03T16:59:50;5.80;99.90
6810;DHT22;3443;48.812;9.112;2023-04-03T17:02:17;5.80;99.90
6810;DHT22;3443;48.812;9.112;2023-04-03T17:04:43;5.80;99.90
6810;DHT22;3443;48.812;9.112;2023-04-03T17:07:09;5.70;99.90
6810;DHT22;3443;48.812;9.112;2023-04-03T17:09:35;5.70;99.90
6810;DHT22;3443;48.812;9.112;2023-04-03T17:12:00;5.70;99.90
6810;DHT22;3443;48.812;9.112;2023-04-03T17:14:26;5.60;99.90
6810;DHT22;3443;48.812;9.112;2023-04-03T17:16:52;5.70;99.90
6810;DHT22;3443;48.812;9.112;2023-04-03T17:19:17;5.60;99.90
6810;DHT22;3443;48.812;9.112;2023-04-03T17:21:43;5.60;99.90
6810;DHT22;3443;48.812;9.112;2023-04-03T17:24:11;5.50;99.90
6810;DHT22;3443;48.812;9.112;2023-04-03T17:26:39;5.60;99.90
6810;DHT22;3443;48.812;9.112;2023-04-03T17:29:05;5.60;99.90
6810;DHT22;3443;48.812;9.112;2023-04-03T17:31:31;5.50;99.90
6810;DHT22;3443;48.812;9.112;2023-04-03T17:33:57;5.50;99.90
6810;DHT22;3443;48.812;9.112;2023-04-03T17:36:29;5.50;99.90
6810;DHT22;3443;48.812;9.112;2023-04-03T17:38:55;5.40;99.90
6810;DHT22;3443;48.812;9.112;2023-04-03T17:41:21;5.40;99.90
6810;DHT22;3443;48.812;9.112;2023-04-03T17:43:46;5.30;99.90
6810;DHT22;3443;48.812;9.112;2023-04-03T17:46:12;5.30;99.90
6810;DHT22;3443;48.812;9.112;2023-04-03T17:48:39;5.30;99.90
6810;DHT22;3443;48.812;9.112;2023-04-03T17:51:07;5.30;99.90
6810;DHT22;3443;48.812;9.112;2023-04-03T17:53:33;5.20;99.90
6810;DHT22;3443;48.812;9.112;2023-04-03T17:56:05;5.20;99.90
6810;DHT22;3443;48.812;9.112;2023-04-03T17:58:30;5.20;99.90
6810;DHT22;3443;48.812;9.112;2023-04-03T18:00:56;5.20;99.90
6810;DHT22;3443;48.812;9.112;2023-04-03T18:03:22;5.20;99.90
6810;DHT22;3443;48.812;9.112;2023-04-03T18:05:47;5.20;99.90
6810;DHT22;3443;48.812;9.112;2023-04-03T18:08:15;5.20;99.90
6810;DHT22;3443;48.812;9.112;2023-04-03T18:10:41;5.20;99.90
6810;DHT22;3443;48.812;9.112;2023-04-03T18:13:07;5.20;99.90
6810;DHT22;3443;48.812;9.112;2023-04-03T18:15:33;5.10;99.90